createdAt,value
2018-08-24T00:02:19.927Z,4.20
2018-08-24T00:04:48.350Z,4.10
2018-08-24T00:07:16.561Z,3.53
2018-08-24T00:09:44.906Z,5.17
2018-08-24T00:12:13.084Z,4.40
2018-08-24T00:14:41.282Z,4.37
2018-08-24T00:17:14.810Z,4.23
2018-08-24T00:19:43.017Z,4.63
2018-08-24T00:22:11.414Z,3.70
2018-08-24T00:24:39.730Z,5.17
2018-08-24T00:27:08.024Z,5.20
2018-08-24T00:29:36.200Z,4.70
2018-08-24T00:32:04.363Z,4.10
2018-08-24T00:34:32.557Z,4.57
2018-08-24T00:37:00.955Z,5.43
2018-08-24T00:39:29.172Z,6.70
2018-08-24T00:41:57.347Z,5.37
2018-08-24T00:44:25.752Z,7.40
2018-08-24T00:46:54.560Z,4.40
2018-08-24T00:49:23.121Z,5.63
2018-08-24T00:51:51.282Z,4.33
2018-08-24T00:54:19.465Z,3.77
2018-08-24T00:56:47.881Z,3.93
2018-08-24T00:59:16.105Z,4.43
2018-08-24T01:01:44.277Z,5.03
2018-08-24T01:04:12.986Z,4.53
2018-08-24T01:06:41.157Z,5.40
2018-08-24T01:09:09.353Z,5.23
2018-08-24T01:11:42.871Z,7.77
2018-08-24T01:14:11.028Z,5.93
2018-08-24T01:16:44.504Z,6.50
2018-08-24T01:19:12.789Z,5.30
2018-08-24T01:21:40.946Z,4.67
2018-08-24T01:24:09.114Z,4.77
2018-08-24T01:26:37.287Z,5.03
2018-08-24T01:29:05.507Z,4.13
2018-08-24T01:31:33.656Z,3.90
2018-08-24T01:34:02.312Z,4.17
2018-08-24T01:36:30.513Z,4.13
2018-08-24T01:38:59.018Z,4.10
2018-08-24T01:41:27.156Z,4.20
2018-08-24T01:43:55.361Z,8.10
2018-08-24T01:46:23.511Z,5.37
2018-08-24T01:48:51.717Z,4.43
2018-08-24T01:51:19.882Z,4.60
2018-08-24T01:53:48.048Z,6.00
2018-08-24T01:56:16.247Z,6.60
2018-08-24T01:58:44.412Z,5.83
2018-08-24T02:01:12.602Z,5.83
2018-08-24T02:03:40.817Z,5.50
2018-08-24T02:06:09.014Z,6.87
2018-08-24T02:08:37.935Z,5.90
2018-08-24T02:11:11.640Z,10.43
2018-08-24T02:13:46.270Z,6.83
2018-08-24T02:16:14.433Z,7.03
2018-08-24T02:18:47.913Z,6.80
2018-08-24T02:21:21.485Z,6.17
2018-08-24T02:23:49.674Z,5.80
2018-08-24T02:26:17.977Z,5.23
2018-08-24T02:28:46.197Z,7.00
2018-08-24T02:31:15.368Z,6.20
2018-08-24T02:33:43.536Z,6.27
2018-08-24T02:36:11.833Z,7.30
2018-08-24T02:38:40.415Z,6.90
2018-08-24T02:41:08.647Z,6.70
2018-08-24T02:43:36.890Z,5.53
2018-08-24T02:46:05.137Z,6.30
2018-08-24T02:48:33.619Z,5.60
2018-08-24T02:51:01.825Z,7.23
2018-08-24T02:53:30.043Z,5.60
2018-08-24T02:55:58.245Z,6.80
2018-08-24T02:58:26.436Z,8.37
2018-08-24T03:00:54.638Z,5.00
2018-08-24T03:03:22.884Z,6.80
2018-08-24T03:05:51.078Z,6.70
2018-08-24T03:08:19.328Z,6.00
2018-08-24T03:10:47.506Z,6.47
2018-08-24T03:13:15.719Z,7.57
2018-08-24T03:15:43.920Z,6.33
2018-08-24T03:18:12.090Z,7.77
2018-08-24T03:20:40.339Z,8.13
2018-08-24T03:23:08.590Z,8.87
2018-08-24T03:25:36.800Z,7.20
2018-08-24T03:28:05.024Z,6.30
2018-08-24T03:30:33.240Z,8.27
2018-08-24T03:33:01.434Z,7.60
2018-08-24T03:35:29.717Z,6.40
2018-08-24T03:37:57.936Z,9.80
2018-08-24T03:40:26.221Z,7.43
2018-08-24T03:42:54.414Z,8.33
2018-08-24T03:45:22.618Z,6.37
2018-08-24T03:47:50.792Z,6.90
2018-08-24T03:50:19.033Z,6.20
2018-08-24T03:52:47.259Z,6.63
2018-08-24T03:55:15.527Z,8.83
2018-08-24T03:57:43.700Z,6.87
2018-08-24T04:00:17.712Z,7.73
2018-08-24T04:02:46.387Z,5.33
2018-08-24T04:05:15.040Z,7.93
2018-08-24T04:07:43.645Z,7.20
2018-08-24T04:10:11.809Z,7.67
2018-08-24T04:12:40.002Z,8.60
2018-08-24T04:15:08.225Z,7.57
2018-08-24T04:17:44.564Z,6.00
2018-08-24T04:20:13.614Z,8.30
2018-08-24T04:22:41.863Z,6.13
2018-08-24T04:25:10.491Z,5.60
2018-08-24T04:27:39.183Z,8.20
2018-08-24T04:30:07.872Z,9.00
2018-08-24T04:32:36.117Z,7.00
2018-08-24T04:35:04.768Z,7.23
2018-08-24T04:37:32.969Z,5.50
2018-08-24T04:40:01.139Z,6.03
2018-08-24T04:42:29.354Z,8.10
2018-08-24T04:44:57.537Z,5.97
2018-08-24T04:47:25.742Z,6.50
2018-08-24T04:49:54.449Z,5.93
2018-08-24T04:52:23.050Z,7.67
2018-08-24T04:54:51.274Z,6.90
2018-08-24T04:57:19.728Z,7.27
2018-08-24T04:59:47.955Z,8.57
2018-08-24T05:02:16.146Z,5.30
2018-08-24T05:04:44.341Z,6.30
2018-08-24T05:07:12.598Z,6.03
2018-08-24T05:09:40.760Z,6.27
2018-08-24T05:12:09.020Z,7.17
2018-08-24T05:14:37.209Z,6.13
2018-08-24T05:17:05.397Z,6.10
2018-08-24T05:19:33.586Z,6.87
2018-08-24T05:22:01.783Z,5.70
2018-08-24T05:24:29.936Z,9.53
2018-08-24T05:26:58.204Z,7.00
2018-08-24T05:29:26.370Z,6.10
2018-08-24T05:31:54.579Z,7.70
2018-08-24T05:34:22.768Z,6.57
2018-08-24T05:36:50.941Z,7.37
2018-08-24T05:39:19.130Z,7.80
2018-08-24T05:41:47.342Z,7.97
2018-08-24T05:44:15.547Z,8.13
2018-08-24T05:46:43.759Z,6.73
2018-08-24T05:49:11.934Z,6.87
2018-08-24T05:51:40.183Z,5.50
2018-08-24T05:54:08.387Z,8.00
2018-08-24T05:56:36.569Z,8.30
2018-08-24T05:59:04.812Z,9.07
2018-08-24T06:01:33.007Z,5.30
2018-08-24T06:04:01.276Z,5.60
2018-08-24T06:06:29.504Z,5.03
2018-08-24T06:09:03.099Z,5.33
2018-08-24T06:11:31.285Z,6.33
2018-08-24T06:13:59.490Z,7.17
2018-08-24T06:16:27.652Z,5.60
2018-08-24T06:18:55.898Z,4.17
2018-08-24T06:21:24.070Z,5.07
2018-08-24T06:23:52.268Z,5.17
2018-08-24T06:26:20.513Z,8.13
2018-08-24T06:28:48.755Z,6.03
2018-08-24T06:31:16.978Z,5.53
2018-08-24T06:33:45.231Z,6.33
2018-08-24T06:36:13.418Z,4.40
2018-08-24T06:38:41.617Z,4.37
2018-08-24T06:41:09.800Z,6.33
2018-08-24T06:43:38.036Z,5.33
2018-08-24T06:46:06.272Z,5.43
2018-08-24T06:48:34.461Z,5.67
2018-08-24T06:51:02.623Z,4.40
2018-08-24T06:53:30.906Z,4.70
2018-08-24T06:55:59.117Z,6.10
2018-08-24T06:58:27.411Z,3.93
2018-08-24T07:00:55.591Z,6.00
2018-08-24T07:03:23.797Z,7.77
2018-08-24T07:05:52.091Z,5.90
2018-08-24T07:08:21.062Z,4.00
2018-08-24T07:10:49.282Z,4.63
2018-08-24T07:13:17.568Z,6.87
2018-08-24T07:15:45.772Z,6.20
2018-08-24T07:18:14.074Z,6.30
2018-08-24T07:20:42.304Z,3.97
2018-08-24T07:23:10.485Z,5.20
2018-08-24T07:25:38.706Z,5.93
2018-08-24T07:28:06.942Z,8.13
2018-08-24T07:30:35.107Z,5.13
2018-08-24T07:33:03.321Z,4.67
2018-08-24T07:35:31.513Z,3.50
2018-08-24T07:37:59.685Z,4.27
2018-08-24T07:40:27.904Z,5.87
2018-08-24T07:42:56.092Z,6.00
2018-08-24T07:45:24.266Z,6.10
2018-08-24T07:47:52.472Z,5.33
2018-08-24T07:50:20.657Z,6.53
2018-08-24T07:52:48.806Z,4.70
2018-08-24T07:55:16.976Z,4.63
2018-08-24T07:57:45.179Z,9.67
2018-08-24T08:00:13.340Z,4.33
2018-08-24T08:02:44.391Z,6.60
2018-08-24T08:05:12.563Z,6.60
2018-08-24T08:07:40.724Z,3.90
2018-08-24T08:10:09.057Z,6.60
2018-08-24T08:12:37.290Z,6.43
2018-08-24T08:15:06.381Z,5.10
2018-08-24T08:17:34.703Z,5.13
2018-08-24T08:20:02.901Z,6.77
2018-08-24T08:22:31.063Z,5.83
2018-08-24T08:24:59.239Z,6.37
2018-08-24T08:27:27.432Z,10.40
2018-08-24T08:29:59.672Z,6.43
2018-08-24T08:32:28.560Z,6.00
2018-08-24T08:34:56.726Z,7.20
2018-08-24T08:37:25.084Z,5.90
2018-08-24T08:39:57.566Z,5.63
2018-08-24T08:42:25.849Z,7.50
2018-08-24T08:44:54.094Z,7.03
2018-08-24T08:47:22.273Z,6.43
2018-08-24T08:49:50.481Z,5.60
2018-08-24T08:52:18.664Z,5.17
2018-08-24T08:54:46.891Z,5.97
2018-08-24T08:57:15.102Z,6.47
2018-08-24T08:59:43.309Z,6.20
2018-08-24T09:02:11.692Z,7.83
2018-08-24T09:04:40.990Z,6.43
2018-08-24T09:07:09.249Z,7.17
2018-08-24T09:09:37.907Z,7.87
2018-08-24T09:12:06.645Z,5.80
2018-08-24T09:14:35.126Z,7.53
2018-08-24T09:17:08.816Z,8.47
2018-08-24T09:19:42.376Z,10.17
2018-08-24T09:22:15.934Z,4.87
2018-08-24T09:24:49.501Z,9.23
2018-08-24T09:27:23.133Z,6.40
2018-08-24T09:29:51.309Z,7.93
2018-08-24T09:32:19.482Z,4.80
2018-08-24T09:34:47.747Z,9.30
2018-08-24T09:37:21.443Z,7.93
2018-08-24T09:39:49.648Z,6.90
2018-08-24T09:42:17.808Z,6.80
2018-08-24T09:44:46.044Z,7.20
2018-08-24T09:47:19.593Z,6.43
2018-08-24T09:49:48.130Z,14.23
2018-08-24T09:52:21.707Z,7.60
2018-08-24T09:54:49.962Z,10.17
2018-08-24T09:57:18.215Z,10.23
2018-08-24T09:59:46.456Z,10.37
2018-08-24T10:02:19.992Z,8.17
2018-08-24T10:04:53.618Z,8.07
2018-08-24T10:07:33.724Z,8.83
2018-08-24T10:10:02.644Z,10.67
2018-08-24T10:12:36.261Z,8.57
2018-08-24T10:15:05.361Z,14.37
2018-08-24T10:17:33.561Z,11.10
2018-08-24T10:20:01.827Z,8.57
2018-08-24T10:22:30.431Z,8.77
2018-08-24T10:24:58.622Z,8.10
2018-08-24T10:27:26.885Z,8.70
2018-08-24T10:29:55.111Z,6.20
2018-08-24T10:32:23.363Z,8.00
2018-08-24T10:34:51.567Z,7.20
2018-08-24T10:37:19.772Z,6.20
2018-08-24T10:39:47.933Z,8.30
2018-08-24T10:42:16.133Z,10.77
2018-08-24T10:44:44.301Z,6.57
2018-08-24T10:47:12.528Z,7.73
2018-08-24T10:49:40.769Z,23.30
2018-08-24T10:52:08.979Z,7.60
2018-08-24T10:54:37.154Z,8.10
2018-08-24T10:57:05.409Z,14.23
2018-08-24T10:59:33.592Z,11.07
2018-08-24T11:02:01.891Z,9.80
2018-08-24T11:04:30.028Z,10.87
2018-08-24T11:06:58.245Z,11.60
2018-08-24T11:09:26.483Z,9.07
2018-08-24T11:11:54.718Z,8.10
2018-08-24T11:14:22.941Z,9.47
2018-08-24T11:16:51.141Z,9.80
2018-08-24T11:19:19.336Z,11.27
2018-08-24T11:21:47.651Z,9.53
2018-08-24T11:24:15.946Z,10.27
2018-08-24T11:26:44.154Z,9.60
2018-08-24T11:29:12.386Z,9.80
2018-08-24T11:31:40.571Z,12.87
2018-08-24T11:34:08.855Z,9.57
2018-08-24T11:36:37.053Z,9.87
2018-08-24T11:39:06.213Z,13.93
2018-08-24T11:41:34.430Z,10.80
2018-08-24T11:44:02.647Z,10.33
2018-08-24T11:46:30.857Z,11.13
2018-08-24T11:48:59.051Z,16.10
2018-08-24T11:51:27.256Z,12.70
2018-08-24T11:53:55.486Z,9.00
2018-08-24T11:56:23.728Z,10.43
2018-08-24T11:58:51.927Z,8.80
2018-08-24T12:01:20.160Z,9.00
2018-08-24T12:03:48.379Z,10.40
2018-08-24T12:06:16.615Z,10.17
2018-08-24T12:08:44.837Z,10.70
2018-08-24T12:11:13.008Z,8.40
2018-08-24T12:13:41.246Z,11.77
2018-08-24T12:16:09.391Z,11.20
2018-08-24T12:18:37.658Z,9.80
2018-08-24T12:21:05.924Z,10.70
2018-08-24T12:23:34.037Z,9.23
2018-08-24T12:26:02.238Z,8.87
2018-08-24T12:28:30.433Z,12.70
2018-08-24T12:30:58.652Z,12.83
2018-08-24T12:33:26.903Z,10.13
2018-08-24T12:35:55.096Z,11.20
2018-08-24T12:38:23.356Z,10.37
2018-08-24T12:40:51.534Z,11.00
2018-08-24T12:43:19.767Z,11.53
2018-08-24T12:45:47.950Z,11.37
2018-08-24T12:48:16.137Z,9.90
2018-08-24T12:50:44.352Z,8.00
2018-08-24T12:53:12.555Z,10.43
2018-08-24T12:55:40.786Z,8.27
2018-08-24T12:58:09.007Z,10.80
2018-08-24T13:00:37.183Z,9.93
2018-08-24T13:03:05.429Z,10.40
2018-08-24T13:05:33.655Z,10.17
2018-08-24T13:08:01.877Z,8.83
2018-08-24T13:10:30.091Z,8.83
2018-08-24T13:12:58.306Z,9.70
2018-08-24T13:15:26.530Z,8.30
2018-08-24T13:17:54.835Z,9.57
2018-08-24T13:20:23.002Z,9.57
2018-08-24T13:22:51.240Z,9.33
2018-08-24T13:25:19.391Z,9.17
2018-08-24T13:27:47.619Z,13.17
2018-08-24T13:30:15.816Z,10.87
2018-08-24T13:32:44.053Z,9.30
2018-08-24T13:35:12.262Z,8.60
2018-08-24T13:37:40.477Z,8.90
2018-08-24T13:40:08.650Z,8.93
2018-08-24T13:42:36.872Z,8.40
2018-08-24T13:45:05.097Z,9.07
2018-08-24T13:47:33.423Z,6.83
2018-08-24T13:50:01.574Z,7.90
2018-08-24T13:52:29.805Z,8.93
2018-08-24T13:54:58.005Z,8.80
2018-08-24T13:57:26.223Z,7.40
2018-08-24T13:59:54.505Z,7.20
2018-08-24T14:02:22.667Z,8.40
2018-08-24T14:04:50.864Z,6.97
2018-08-24T14:07:19.073Z,7.20
2018-08-24T14:09:47.279Z,7.97
2018-08-24T14:12:15.470Z,6.53
2018-08-24T14:14:43.695Z,8.50
2018-08-24T14:17:11.899Z,11.10
2018-08-24T14:19:40.121Z,6.60
2018-08-24T14:22:08.305Z,6.20
2018-08-24T14:24:36.493Z,7.27
2018-08-24T14:27:04.683Z,6.70
2018-08-24T14:29:32.848Z,8.67
2018-08-24T14:32:01.054Z,7.63
2018-08-24T14:34:29.286Z,7.33
2018-08-24T14:36:57.461Z,8.10
2018-08-24T14:39:25.662Z,9.20
2018-08-24T14:41:53.828Z,8.30
2018-08-24T14:44:22.054Z,8.73
2018-08-24T14:46:50.241Z,10.13
2018-08-24T14:49:18.481Z,12.20
2018-08-24T14:51:46.668Z,8.60
2018-08-24T14:54:14.934Z,8.70
2018-08-24T14:56:43.276Z,9.53
2018-08-24T14:59:11.520Z,9.70
2018-08-24T15:01:39.709Z,11.10
2018-08-24T15:04:07.953Z,13.33
2018-08-24T15:06:36.161Z,11.90
2018-08-24T15:09:06.449Z,13.83
2018-08-24T15:11:35.013Z,14.13
2018-08-24T15:14:03.502Z,16.67
2018-08-24T15:16:32.056Z,16.03
2018-08-24T15:19:00.463Z,16.20
2018-08-24T15:21:28.929Z,13.63
2018-08-24T15:23:57.426Z,15.90
2018-08-24T15:26:25.842Z,14.60
2018-08-24T15:28:54.260Z,16.37
2018-08-24T15:31:22.669Z,13.80
2018-08-24T15:33:51.121Z,17.53
2018-08-24T15:36:19.602Z,17.63
2018-08-24T15:38:48.130Z,14.73
2018-08-24T15:41:16.593Z,16.17
2018-08-24T15:43:45.103Z,14.60
2018-08-24T15:46:13.529Z,21.43
2018-08-24T15:48:42.167Z,23.90
2018-08-24T15:51:10.735Z,23.83
2018-08-24T15:53:39.340Z,22.20
2018-08-24T15:56:07.907Z,22.50
2018-08-24T15:58:36.369Z,25.80
2018-08-24T16:01:04.922Z,23.90
2018-08-24T16:03:33.343Z,22.60
2018-08-24T16:06:02.006Z,24.20
2018-08-24T16:08:30.650Z,27.00
2018-08-24T16:10:59.224Z,21.57
2018-08-24T16:13:27.712Z,21.00
2018-08-24T16:15:56.146Z,18.57
2018-08-24T16:18:25.193Z,17.57
2018-08-24T16:20:54.516Z,17.30
2018-08-24T16:23:23.144Z,14.53
2018-08-24T16:25:51.661Z,14.00
2018-08-24T16:28:20.590Z,14.37
2018-08-24T16:30:48.992Z,14.50
2018-08-24T16:33:18.253Z,15.00
2018-08-24T16:35:47.155Z,15.93
2018-08-24T16:38:16.209Z,14.83
2018-08-24T16:40:44.718Z,13.83
2018-08-24T16:43:13.787Z,14.23
2018-08-24T16:45:42.113Z,16.60
2018-08-24T16:48:10.392Z,15.60
2018-08-24T16:50:38.705Z,15.07
2018-08-24T16:53:06.933Z,14.20
2018-08-24T16:55:35.174Z,14.93
2018-08-24T16:58:03.486Z,15.23
2018-08-24T17:00:31.734Z,13.20
2018-08-24T17:02:59.964Z,15.43
2018-08-24T17:05:28.218Z,15.20
2018-08-24T17:07:56.461Z,14.63
2018-08-24T17:10:24.991Z,16.40
2018-08-24T17:12:53.263Z,15.23
2018-08-24T17:15:21.416Z,18.03
2018-08-24T17:17:49.599Z,15.83
2018-08-24T17:20:17.811Z,16.30
2018-08-24T17:22:46.037Z,15.20
2018-08-24T17:25:14.355Z,15.27
2018-08-24T17:27:42.556Z,15.57
2018-08-24T17:30:10.769Z,17.67
2018-08-24T17:32:38.949Z,18.57
2018-08-24T17:35:07.197Z,17.93
2018-08-24T17:37:35.612Z,19.30
2018-08-24T17:40:03.903Z,17.63
2018-08-24T17:42:32.209Z,18.80
2018-08-24T17:45:00.414Z,20.60
2018-08-24T17:47:28.664Z,18.27
2018-08-24T17:49:57.267Z,16.40
2018-08-24T17:52:25.590Z,14.40
2018-08-24T17:54:53.966Z,15.03
2018-08-24T17:57:22.237Z,11.30
2018-08-24T17:59:51.509Z,18.00
2018-08-24T18:02:19.748Z,14.80
2018-08-24T18:04:48.010Z,12.83
2018-08-24T18:07:16.410Z,14.23
2018-08-24T18:09:44.578Z,14.93
2018-08-24T18:12:12.808Z,12.73
2018-08-24T18:14:41.032Z,14.47
2018-08-24T18:17:09.264Z,16.97
2018-08-24T18:19:37.620Z,20.00
2018-08-24T18:22:05.908Z,15.40
2018-08-24T18:24:34.125Z,15.93
2018-08-24T18:27:02.388Z,17.20
2018-08-24T18:29:30.591Z,19.77
2018-08-24T18:31:58.836Z,24.90
2018-08-24T18:34:27.072Z,15.80
2018-08-24T18:36:55.558Z,18.50
2018-08-24T18:39:23.756Z,18.30
2018-08-24T18:41:52.001Z,16.37
2018-08-24T18:44:20.220Z,19.60
2018-08-24T18:46:48.456Z,20.87
2018-08-24T18:49:16.685Z,17.87
2018-08-24T18:51:44.935Z,15.73
2018-08-24T18:54:13.194Z,16.43
2018-08-24T18:56:41.499Z,16.60
2018-08-24T18:59:09.664Z,16.27
2018-08-24T19:01:37.879Z,14.10
2018-08-24T19:04:06.119Z,16.47
2018-08-24T19:06:34.312Z,17.17
2018-08-24T19:09:03.525Z,15.27
2018-08-24T19:11:37.123Z,18.27
2018-08-24T19:14:05.349Z,17.87
2018-08-24T19:16:33.565Z,17.70
2018-08-24T19:19:07.030Z,19.73
2018-08-24T19:21:42.237Z,21.70
2018-08-24T19:24:10.747Z,19.23
2018-08-24T19:26:39.000Z,17.80
2018-08-24T19:29:12.620Z,21.23
2018-08-24T19:31:40.870Z,23.67
2018-08-24T19:34:09.650Z,19.53
2018-08-24T19:36:37.869Z,19.93
2018-08-24T19:39:07.876Z,22.97
2018-08-24T19:41:41.412Z,20.83
2018-08-24T19:44:09.659Z,21.53
2018-08-24T19:46:37.907Z,22.40
2018-08-24T19:49:11.860Z,20.40
2018-08-24T19:51:40.083Z,19.70
2018-08-24T19:54:08.310Z,19.13
2018-08-24T19:56:36.744Z,20.70
2018-08-24T19:59:06.693Z,21.23
2018-08-24T20:01:35.436Z,18.47
2018-08-24T20:04:04.656Z,21.53
2018-08-24T20:06:38.184Z,20.30
2018-08-24T20:09:14.308Z,23.13
2018-08-24T20:11:43.232Z,19.27
2018-08-24T20:14:11.513Z,21.60
2018-08-24T20:16:45.124Z,18.30
2018-08-24T20:19:13.346Z,22.17
2018-08-24T20:21:41.501Z,25.70
2018-08-24T20:24:09.805Z,21.83
2018-08-24T20:26:38.000Z,23.87
2018-08-24T20:29:06.225Z,23.67
2018-08-24T20:31:34.458Z,23.17
2018-08-24T20:34:02.671Z,26.53
2018-08-24T20:36:30.889Z,24.60
2018-08-24T20:38:59.093Z,28.00
2018-08-24T20:41:27.264Z,25.10
2018-08-24T20:43:55.497Z,23.03
2018-08-24T20:46:23.701Z,22.77
2018-08-24T20:48:51.912Z,26.90
2018-08-24T20:51:20.140Z,23.10
2018-08-24T20:53:48.341Z,21.23
2018-08-24T20:56:16.540Z,25.57
2018-08-24T20:58:44.717Z,27.77
2018-08-24T21:01:12.931Z,24.17
2018-08-24T21:03:41.133Z,23.10
2018-08-24T21:06:09.343Z,22.40
2018-08-24T21:08:37.571Z,23.33
2018-08-24T21:11:05.846Z,23.50
2018-08-24T21:13:34.100Z,23.47
2018-08-24T21:16:02.318Z,24.47
2018-08-24T21:18:30.524Z,25.07
2018-08-24T21:20:58.804Z,24.70
2018-08-24T21:23:27.065Z,25.93
2018-08-24T21:25:55.321Z,24.33
2018-08-24T21:28:23.543Z,25.87
2018-08-24T21:30:51.794Z,25.30
2018-08-24T21:33:19.998Z,22.37
2018-08-24T21:35:48.220Z,25.97
2018-08-24T21:38:16.442Z,29.73
2018-08-24T21:40:44.699Z,24.33
2018-08-24T21:43:12.909Z,28.03
2018-08-24T21:45:41.136Z,25.77
2018-08-24T21:48:09.432Z,26.10
2018-08-24T21:50:37.662Z,28.90
2018-08-24T21:53:05.869Z,23.60
2018-08-24T21:55:34.099Z,28.47
2018-08-24T21:58:02.350Z,28.37
2018-08-24T22:00:30.637Z,29.00
2018-08-24T22:02:58.839Z,28.60
2018-08-24T22:05:27.045Z,24.13
2018-08-24T22:07:55.269Z,26.20
2018-08-24T22:10:23.485Z,25.57
2018-08-24T22:12:51.705Z,30.07
2018-08-24T22:15:19.919Z,26.90
2018-08-24T22:17:48.124Z,25.60
2018-08-24T22:20:16.347Z,27.03
2018-08-24T22:22:44.574Z,32.23
2018-08-24T22:25:12.776Z,28.23
2018-08-24T22:27:41.003Z,28.03
2018-08-24T22:30:09.259Z,27.33
2018-08-24T22:32:37.485Z,25.27
2018-08-24T22:35:05.711Z,23.27
2018-08-24T22:37:33.934Z,24.90
2018-08-24T22:40:02.160Z,25.60
2018-08-24T22:42:30.397Z,26.40
2018-08-24T22:44:58.622Z,25.50
2018-08-24T22:47:26.835Z,25.20
2018-08-24T22:49:55.030Z,26.87
2018-08-24T22:52:23.250Z,23.07
2018-08-24T22:54:51.447Z,25.77
2018-08-24T22:57:19.734Z,23.57
2018-08-24T22:59:48.019Z,29.53
2018-08-24T23:02:16.264Z,29.23
2018-08-24T23:04:44.544Z,29.30
2018-08-24T23:07:12.765Z,26.80
2018-08-24T23:09:40.950Z,31.60
2018-08-24T23:12:09.158Z,26.83
2018-08-24T23:14:37.392Z,27.87
2018-08-24T23:17:05.629Z,23.10
2018-08-24T23:19:33.863Z,21.63
2018-08-24T23:22:02.088Z,28.63
2018-08-24T23:24:30.298Z,25.47
2018-08-24T23:26:58.554Z,26.57
2018-08-24T23:29:26.758Z,22.73
2018-08-24T23:31:54.959Z,27.50
2018-08-24T23:34:23.157Z,25.00
2018-08-24T23:36:51.386Z,26.77
2018-08-24T23:39:19.589Z,25.67
2018-08-24T23:41:47.819Z,28.53
2018-08-24T23:44:16.078Z,24.40
2018-08-24T23:46:44.330Z,32.83
2018-08-24T23:49:12.520Z,27.60
2018-08-24T23:51:40.754Z,24.53
2018-08-24T23:54:08.975Z,29.17
2018-08-24T23:56:37.172Z,30.50
2018-08-24T23:59:05.401Z,31.87
